Canaan, IN (47224)

10:35 AM EDT on August 23, 2014 (GMT -0400)
RAWS BIG OAKS IN US | Change Station
CLOSE
Current Station
Personal Weather Station
Location: Canaan, IN
Elevation: 899 ft
Nearby Weather Stations

Elev 899 ft 38.93 °N, 85.36 °W | Updated 48 minutes ago

Mostly Cloudy
Mostly Cloudy
79 °F
Feels Like 84 °F
N
2
Wind Variable Wind from ESE
Gusts 5.0 mph

Today
High -- | Low -- °F
--% Chance of Precip.
Yesterday
High -- | Low -- °F
Precip. -- in
7:01 AM 8:24 PM
Waning Crescent, 4% visible
Pressure 29.99 in
Visibility 10.0 miles
Clouds Few 1500 ft
Mostly Cloudy 7000 ft
Mostly Cloudy 15000 ft
Heat Index 84 °F
Dew Point 79 °F
Humidity 100%
Rainfall 0.00 in
Snow Depth Not available.
UV 2 out of 12
Pollen 9.60 out of 12
Ozone Good
PM2.5 Good
Flu Activity Not available.
METAR KCVG 231352Z 00000KT 10SM FEW015 BKN070 BKN150 26/23 A3002 RMK AO2 SLP154 T02610228

More Conditions Fewer Conditions

Pressure 29.99 in
Visibility 10.0 miles
Clouds Few 1500 ft
Mostly Cloudy 7000 ft
Mostly Cloudy 15000 ft
Heat Index 84 °F
Dew Point 79 °F
Humidity 100%
Rainfall 0.00 in
Snow Depth Not available.
UV 2 out of 12
Pollen 9.60 out of 12
Ozone Good
PM2.5 Good
Flu Activity Not available.
METAR KCVG 231352Z 00000KT 10SM FEW015 BKN070 BKN150 26/23 A3002 RMK AO2 SLP154 T02610228

More Conditions Fewer Conditions

10-Day Weather Forecast

Almanac

Astronomy

Aug. 23, 2014 Rise Set
Actual Time 7:01 AM EDT 8:24 PM EDT
Civil Twilight 6:34 AM EDT 8:52 PM EDT
Nautical Twilight 6:00 AM EDT 9:25 PM EDT
Astronomical Twilight 5:25 AM EDT 10:00 PM EDT
Moon 5:17 AM EDT 7:08 PM EDT
Length of Visible Light 14h 18m
Length of Day
13h 22m
Tomorrow will be 2m 21s shorter.
Waning Crescent, 4% of the Moon is Illuminated
Today
Waning Crescent
Aug 25
New
Sep 2
First Quarter
Sep 8
Full
Sep 15
Last Quarter

Today's Extremes

State Highs State Lows

Community

WunderPhotos

Upload Photos

1,746,473 photos uploaded!

WunderBlogs® & News

By Dr. Jeff Masters
Director of Meteorology, Weather Underground
By Kari Strenfel
Meteorologist, Weather Underground
By Christopher C. Burt
Weather Historian, Weather Underground
August 23, 2014
August 23, 2014
August 23, 2014

Nearby

Air Quality

  Air Quality AQ Index Pollutant
Yesterday Good
PM10
Yesterday Good
OZONE
Current Good
PM2.5
Current Good
OZONE
Saturday Moderate
PM2.5
Saturday Good
OZONE
Sunday Moderate
PM2.5
Sunday Moderate
OZONE
Monday Moderate
PM2.5
Monday Moderate
OZONE

Snow Depth

Station Depth Elevation
No new snow has been reported.

Earthquake Activity

City Distance Mag. Time & Date
No recent earthquake activity has been reported nearby.
Minimum magnitude displayed is 2.5.

Coastal Water Temperatures

Place Temperature
No Stations Reporting

Nearby Weather Stations